createdAt,value
2022-09-22T00:00:52.274Z,1.40
2022-09-22T00:01:52.241Z,1.50
2022-09-22T00:02:52.221Z,1.60
2022-09-22T00:03:52.200Z,1.40
2022-09-22T00:04:52.183Z,1.40
2022-09-22T00:05:52.189Z,1.50
2022-09-22T00:06:52.166Z,1.90
2022-09-22T00:07:52.177Z,1.50
2022-09-22T00:08:52.143Z,1.90
2022-09-22T00:09:52.134Z,1.20
2022-09-22T00:10:52.122Z,1.60
2022-09-22T00:11:52.111Z,1.50
2022-09-22T00:12:52.101Z,2.00
2022-09-22T00:13:52.107Z,1.50
2022-09-22T00:14:52.075Z,1.90
2022-09-22T00:15:52.087Z,1.50
2022-09-22T00:16:52.047Z,1.50
2022-09-22T00:17:52.060Z,1.60
2022-09-22T00:18:52.026Z,1.60
2022-09-22T00:19:52.020Z,1.40
2022-09-22T00:20:52.011Z,1.50
2022-09-22T00:21:52.001Z,1.70
2022-09-22T00:22:52.012Z,1.50
2022-09-22T00:23:51.984Z,1.90
2022-09-22T00:24:51.964Z,1.60
2022-09-22T00:25:51.953Z,1.50
2022-09-22T00:26:51.935Z,1.60
2022-09-22T00:27:51.948Z,1.40
2022-09-22T00:28:51.929Z,2.10
2022-09-22T00:29:51.908Z,1.80
2022-09-22T00:30:51.900Z,1.70
2022-09-22T00:31:51.931Z,1.40
2022-09-22T00:32:51.879Z,1.70
2022-09-22T00:33:51.860Z,2.00
2022-09-22T00:34:51.873Z,1.90
2022-09-22T00:35:51.842Z,1.80
2022-09-22T00:36:51.835Z,1.60
2022-09-22T00:37:51.830Z,1.70
2022-09-22T00:38:51.807Z,1.70
2022-09-22T00:39:51.800Z,1.70
2022-09-22T00:40:51.780Z,1.50
2022-09-22T00:41:51.782Z,1.80
2022-09-22T00:42:51.775Z,1.90
2022-09-22T00:43:51.755Z,2.00
2022-09-22T00:44:51.741Z,1.60
2022-09-22T00:45:51.732Z,1.70
2022-09-22T00:46:51.818Z,1.60
2022-09-22T00:47:51.742Z,1.50
2022-09-22T00:48:51.693Z,1.60
2022-09-22T00:49:51.685Z,1.70
2022-09-22T00:50:51.671Z,1.70
2022-09-22T00:51:51.658Z,2.10
2022-09-22T00:52:51.675Z,1.80
2022-09-22T00:53:51.641Z,1.90
2022-09-22T00:54:51.644Z,2.10
2022-09-22T00:55:51.619Z,1.80
2022-09-22T00:56:51.605Z,1.90
2022-09-22T00:57:51.614Z,1.60
2022-09-22T00:58:51.588Z,2.10
2022-09-22T00:59:51.580Z,1.70
2022-09-22T01:00:51.644Z,2.60
2022-09-22T01:01:51.600Z,1.50
2022-09-22T01:02:51.550Z,1.70
2022-09-22T01:03:51.539Z,1.90
2022-09-22T01:04:51.518Z,1.70
2022-09-22T01:05:51.512Z,1.90
2022-09-22T01:06:51.493Z,1.90
2022-09-22T01:07:51.509Z,1.80
2022-09-22T01:08:51.470Z,2.00
2022-09-22T01:09:51.463Z,1.70
2022-09-22T01:10:51.446Z,1.80
2022-09-22T01:11:51.435Z,2.10
2022-09-22T01:12:51.443Z,1.70
2022-09-22T01:13:51.417Z,2.10
2022-09-22T01:14:51.426Z,2.10
2022-09-22T01:15:51.461Z,1.80
2022-09-22T01:16:51.381Z,2.00
2022-09-22T01:17:51.378Z,1.90
2022-09-22T01:18:51.380Z,1.70
2022-09-22T01:19:51.374Z,1.60
2022-09-22T01:20:51.342Z,1.70
2022-09-22T01:21:51.328Z,2.00
2022-09-22T01:22:51.313Z,1.80
2022-09-22T01:23:51.321Z,2.10
2022-09-22T01:24:51.286Z,1.70
2022-09-22T01:25:51.285Z,1.70
2022-09-22T01:26:51.280Z,1.90
2022-09-22T01:27:51.268Z,2.10
2022-09-22T01:28:51.260Z,1.70
2022-09-22T01:29:51.237Z,2.10
2022-09-22T01:30:51.374Z,1.80
2022-09-22T01:31:51.213Z,1.90
2022-09-22T01:32:51.203Z,1.70
2022-09-22T01:33:51.215Z,2.10
2022-09-22T01:34:51.176Z,1.80
2022-09-22T01:35:51.177Z,1.60
2022-09-22T01:36:51.159Z,1.80
2022-09-22T01:37:51.151Z,1.70
2022-09-22T01:38:51.153Z,1.90
2022-09-22T01:39:51.132Z,1.80
2022-09-22T01:40:51.106Z,1.80
2022-09-22T01:41:51.098Z,1.80
2022-09-22T01:42:51.083Z,2.20
2022-09-22T01:43:51.097Z,1.80
2022-09-22T01:44:51.080Z,1.90
2022-09-22T01:45:51.074Z,2.00
2022-09-22T01:46:51.115Z,2.70
2022-09-22T01:47:51.038Z,1.80
2022-09-22T01:48:51.054Z,2.00
2022-09-22T01:49:51.020Z,1.90
2022-09-22T01:50:51.002Z,1.80
2022-09-22T01:51:50.990Z,2.00
2022-09-22T01:52:50.981Z,1.90
2022-09-22T01:53:50.989Z,2.20
2022-09-22T01:54:50.960Z,2.10
2022-09-22T01:55:50.945Z,1.80
2022-09-22T01:56:50.955Z,1.80
2022-09-22T01:57:50.928Z,2.00
2022-09-22T01:58:50.927Z,1.90
2022-09-22T01:59:50.902Z,1.90
2022-09-22T02:00:50.894Z,2.50
2022-09-22T02:01:51.001Z,2.10
2022-09-22T02:02:51.060Z,2.10
2022-09-22T02:03:50.886Z,2.00
2022-09-22T02:04:50.844Z,2.20
2022-09-22T02:05:50.845Z,2.10
2022-09-22T02:06:50.825Z,2.10
2022-09-22T02:07:50.816Z,2.20
2022-09-22T02:08:50.816Z,2.00
2022-09-22T02:09:50.791Z,2.10
2022-09-22T02:10:50.780Z,2.00
2022-09-22T02:11:50.769Z,2.60
2022-09-22T02:12:50.755Z,2.20
2022-09-22T02:13:50.759Z,2.10
2022-09-22T02:14:50.731Z,2.20
2022-09-22T02:15:50.813Z,2.10
2022-09-22T02:16:50.714Z,2.40
2022-09-22T02:17:50.714Z,2.40
2022-09-22T02:18:50.708Z,2.00
2022-09-22T02:19:50.686Z,2.60
2022-09-22T02:20:50.668Z,2.40
2022-09-22T02:21:50.657Z,2.40
2022-09-22T02:22:50.649Z,2.70
2022-09-22T02:23:50.646Z,2.30
2022-09-22T02:24:50.637Z,2.40
2022-09-22T02:25:50.617Z,2.50
2022-09-22T02:26:50.606Z,2.50
2022-09-22T02:27:50.596Z,2.60
2022-09-22T02:28:50.577Z,2.60
2022-09-22T02:29:50.578Z,2.30
2022-09-22T02:31:10.512Z,2.60
2022-09-22T02:31:50.579Z,2.60
2022-09-22T02:32:50.529Z,2.40
2022-09-22T02:33:50.525Z,2.50
2022-09-22T02:34:50.625Z,2.60
2022-09-22T02:35:50.503Z,2.70
2022-09-22T02:36:50.523Z,2.90
2022-09-22T02:37:50.480Z,2.30
2022-09-22T02:38:50.465Z,2.50
2022-09-22T02:39:50.462Z,2.50
2022-09-22T02:40:50.487Z,2.40
2022-09-22T02:41:50.438Z,2.60
2022-09-22T02:42:50.443Z,2.30
2022-09-22T02:43:50.432Z,2.70
2022-09-22T02:44:50.417Z,2.40
2022-09-22T02:45:50.492Z,2.60
2022-09-22T02:46:50.383Z,2.50
2022-09-22T02:47:50.375Z,2.80
2022-09-22T02:48:50.375Z,2.30
2022-09-22T02:49:50.349Z,2.60
2022-09-22T02:50:50.348Z,2.30
2022-09-22T02:51:50.328Z,3.20
2022-09-22T02:52:50.324Z,3.20
2022-09-22T02:53:50.308Z,2.70
2022-09-22T02:54:50.304Z,2.70
2022-09-22T02:55:50.284Z,2.50
2022-09-22T02:56:50.283Z,2.80
2022-09-22T02:57:50.260Z,2.60
2022-09-22T02:58:50.246Z,2.50
2022-09-22T02:59:50.260Z,2.90
2022-09-22T03:00:50.237Z,3.00
2022-09-22T03:01:50.282Z,3.00
2022-09-22T03:02:50.201Z,2.70
2022-09-22T03:03:50.194Z,2.50
2022-09-22T03:04:50.244Z,2.90
2022-09-22T03:05:50.172Z,2.90
2022-09-22T03:06:50.215Z,2.60
2022-09-22T03:07:50.142Z,2.80
2022-09-22T03:08:50.148Z,2.70
2022-09-22T03:09:50.142Z,2.50
2022-09-22T03:10:50.118Z,2.60
2022-09-22T03:11:50.106Z,2.50
2022-09-22T03:13:15.018Z,2.60
2022-09-22T03:13:50.095Z,2.80
2022-09-22T03:14:50.078Z,2.50
2022-09-22T03:15:50.114Z,2.90
2022-09-22T03:16:50.042Z,2.60
2022-09-22T03:17:50.059Z,2.50
2022-09-22T03:18:50.041Z,2.60
2022-09-22T03:19:50.015Z,2.60
2022-09-22T03:20:50.002Z,2.40
2022-09-22T03:21:49.998Z,2.50
2022-09-22T03:22:49.975Z,2.30
2022-09-22T03:23:49.978Z,2.50
2022-09-22T03:24:49.974Z,2.50
2022-09-22T03:25:49.953Z,2.50
2022-09-22T03:26:49.939Z,2.70
2022-09-22T03:27:49.932Z,2.40
2022-09-22T03:28:49.913Z,2.40
2022-09-22T03:29:49.907Z,2.20
2022-09-22T03:30:50.021Z,2.30
2022-09-22T03:31:49.894Z,2.30
2022-09-22T03:32:49.876Z,2.30
2022-09-22T03:33:52.725Z,2.30
2022-09-22T03:34:49.843Z,2.30
2022-09-22T03:35:49.846Z,2.30
2022-09-22T03:36:49.852Z,2.30
2022-09-22T03:37:49.816Z,2.20
2022-09-22T03:38:49.806Z,2.00
2022-09-22T03:39:49.792Z,2.30
2022-09-22T03:40:49.843Z,2.20
2022-09-22T03:41:49.775Z,2.10
2022-09-22T03:42:49.790Z,2.40
2022-09-22T03:43:49.764Z,2.80
2022-09-22T03:44:49.749Z,2.50
2022-09-22T03:45:49.794Z,2.40
2022-09-22T03:46:49.711Z,2.30
2022-09-22T03:47:49.716Z,2.40
2022-09-22T03:48:49.716Z,2.40
2022-09-22T03:49:49.684Z,2.20
2022-09-22T03:50:49.674Z,2.50
2022-09-22T03:51:49.662Z,2.10
2022-09-22T03:52:49.645Z,2.50
2022-09-22T03:53:49.648Z,2.30
2022-09-22T03:54:49.643Z,2.10
2022-09-22T03:55:49.627Z,2.30
2022-09-22T03:56:49.606Z,2.10
2022-09-22T03:57:49.593Z,1.70
2022-09-22T03:58:49.588Z,2.20
2022-09-22T03:59:49.566Z,1.90
2022-09-22T04:00:49.585Z,2.30
2022-09-22T04:01:50.080Z,2.10
2022-09-22T04:02:49.589Z,2.10
2022-09-22T04:03:49.531Z,1.90
2022-09-22T04:04:49.514Z,1.90
2022-09-22T04:05:49.506Z,1.70
2022-09-22T04:06:49.554Z,1.80
2022-09-22T04:07:49.484Z,2.20
2022-09-22T04:08:49.470Z,2.30
2022-09-22T04:09:49.467Z,2.00
2022-09-22T04:10:49.447Z,1.80
2022-09-22T04:11:49.436Z,2.20
2022-09-22T04:12:49.447Z,2.00
2022-09-22T04:13:49.413Z,2.50
2022-09-22T04:14:49.413Z,2.20
2022-09-22T04:15:49.403Z,2.10
2022-09-22T04:16:49.413Z,2.30
2022-09-22T04:17:49.378Z,2.40
2022-09-22T04:18:49.385Z,3.10
2022-09-22T04:19:49.364Z,2.60
2022-09-22T04:20:49.340Z,2.80
2022-09-22T04:21:53.216Z,3.20
2022-09-22T04:22:49.323Z,3.30
2022-09-22T04:23:49.304Z,3.20
2022-09-22T04:24:49.313Z,3.10
2022-09-22T04:25:49.301Z,3.00
2022-09-22T04:27:08.541Z,2.80
2022-09-22T04:27:49.269Z,3.30
2022-09-22T04:28:49.249Z,3.20
2022-09-22T04:29:49.256Z,3.00
2022-09-22T04:30:49.283Z,3.30
2022-09-22T04:31:49.216Z,3.30
2022-09-22T04:32:49.202Z,3.60
2022-09-22T04:33:49.200Z,2.90
2022-09-22T04:34:49.187Z,3.30
2022-09-22T04:35:49.174Z,3.20
2022-09-22T04:36:49.187Z,3.40
2022-09-22T04:37:49.147Z,3.50
2022-09-22T04:38:49.145Z,3.00
2022-09-22T04:39:49.131Z,2.70
2022-09-22T04:40:49.213Z,3.10
2022-09-22T04:41:49.108Z,3.00
2022-09-22T04:42:49.106Z,2.70
2022-09-22T04:43:49.083Z,3.30
2022-09-22T04:44:49.070Z,3.50
2022-09-22T04:45:49.167Z,3.50
2022-09-22T04:46:49.055Z,3.30
2022-09-22T04:47:49.043Z,2.70
2022-09-22T04:48:49.046Z,3.30
2022-09-22T04:49:49.028Z,2.70
2022-09-22T04:50:49.004Z,3.30
2022-09-22T04:51:48.997Z,2.90
2022-09-22T04:52:48.982Z,2.90
2022-09-22T04:53:48.992Z,2.90
2022-09-22T04:54:48.981Z,2.90
2022-09-22T04:55:48.953Z,2.60
2022-09-22T04:56:48.932Z,2.80
2022-09-22T04:57:48.936Z,2.80
2022-09-22T04:58:48.913Z,3.20
2022-09-22T04:59:48.903Z,3.60
2022-09-22T05:00:48.921Z,2.80
2022-09-22T05:01:48.943Z,3.00
2022-09-22T05:02:48.898Z,2.70
2022-09-22T05:03:48.859Z,2.40
2022-09-22T05:04:48.849Z,2.20
2022-09-22T05:05:48.854Z,2.10
2022-09-22T05:06:48.850Z,2.10
2022-09-22T05:07:48.825Z,1.80
2022-09-22T05:08:48.807Z,1.70
2022-09-22T05:09:48.804Z,1.70
2022-09-22T05:10:48.800Z,2.20
2022-09-22T05:11:48.827Z,1.70
2022-09-22T05:12:55.320Z,1.80
2022-09-22T05:13:48.752Z,1.70
2022-09-22T05:14:48.733Z,1.80
2022-09-22T05:15:48.725Z,1.70
2022-09-22T05:16:48.822Z,1.60
2022-09-22T05:17:48.726Z,1.70
2022-09-22T05:18:48.691Z,1.60
2022-09-22T05:19:48.682Z,2.20
2022-09-22T05:20:48.726Z,1.70
2022-09-22T05:21:48.665Z,2.10
2022-09-22T05:22:48.650Z,1.80
2022-09-22T05:23:48.665Z,1.80
2022-09-22T05:24:48.626Z,2.00
2022-09-22T05:25:48.621Z,1.80
2022-09-22T05:26:48.613Z,2.00
2022-09-22T05:27:48.607Z,1.80
2022-09-22T05:28:48.577Z,1.70
2022-09-22T05:29:48.588Z,1.50
2022-09-22T05:30:48.572Z,1.40
2022-09-22T05:31:48.640Z,1.60
2022-09-22T05:32:48.539Z,1.50
2022-09-22T05:33:48.557Z,1.70
2022-09-22T05:34:48.537Z,1.60
2022-09-22T05:35:48.533Z,1.60
2022-09-22T05:36:48.492Z,1.80
2022-09-22T05:37:48.483Z,1.60
2022-09-22T05:38:48.471Z,1.40
2022-09-22T05:39:48.495Z,2.00
2022-09-22T05:40:48.561Z,1.90
2022-09-22T05:41:48.457Z,1.70
2022-09-22T05:42:48.428Z,1.40
2022-09-22T05:43:48.417Z,1.50
2022-09-22T05:44:48.402Z,2.00
2022-09-22T05:45:48.420Z,1.80
2022-09-22T05:46:48.414Z,1.80
2022-09-22T05:47:48.381Z,1.80
2022-09-22T05:48:48.362Z,1.90
2022-09-22T05:49:48.355Z,1.70
2022-09-22T05:50:48.338Z,1.80
2022-09-22T05:51:48.351Z,1.80
2022-09-22T05:52:48.307Z,1.40
2022-09-22T05:53:48.325Z,1.60
2022-09-22T05:54:48.299Z,1.80
2022-09-22T05:55:48.285Z,1.80
2022-09-22T05:56:48.288Z,1.60
2022-09-22T05:57:48.273Z,1.50
2022-09-22T05:58:48.250Z,1.90
2022-09-22T05:59:48.240Z,2.10
2022-09-22T06:00:48.300Z,1.80
2022-09-22T06:01:48.243Z,1.70
2022-09-22T06:02:48.261Z,2.00
2022-09-22T06:03:48.193Z,2.00
2022-09-22T06:04:50.009Z,1.70
2022-09-22T06:05:48.177Z,2.00
2022-09-22T06:06:48.165Z,2.30
2022-09-22T06:07:48.158Z,1.70
2022-09-22T06:08:49.211Z,1.90
2022-09-22T06:09:48.131Z,2.00
2022-09-22T06:10:48.129Z,2.30
2022-09-22T06:11:48.109Z,1.80
2022-09-22T06:12:48.090Z,1.60
2022-09-22T06:13:48.094Z,2.10
2022-09-22T06:14:48.119Z,1.80
2022-09-22T06:15:48.059Z,2.20
2022-09-22T06:16:48.169Z,2.40
2022-09-22T06:17:48.041Z,2.20
2022-09-22T06:18:48.111Z,2.10
2022-09-22T06:19:48.016Z,2.50
2022-09-22T06:20:48.038Z,2.10
2022-09-22T06:21:48.004Z,2.60
2022-09-22T06:22:47.987Z,1.90
2022-09-22T06:23:47.992Z,1.90
2022-09-22T06:24:47.982Z,2.10
2022-09-22T06:25:47.961Z,2.20
2022-09-22T06:26:47.935Z,1.90
2022-09-22T06:27:47.949Z,1.70
2022-09-22T06:28:47.939Z,1.80
2022-09-22T06:29:47.960Z,1.90
2022-09-22T06:30:47.908Z,2.10
2022-09-22T06:31:48.013Z,2.00
2022-09-22T06:32:47.933Z,1.80
2022-09-22T06:33:47.911Z,1.80
2022-09-22T06:34:47.928Z,2.20
2022-09-22T06:35:47.889Z,2.30
2022-09-22T06:36:47.897Z,2.10
2022-09-22T06:37:47.860Z,2.50
2022-09-22T06:38:47.870Z,2.00
2022-09-22T06:39:47.832Z,2.20
2022-09-22T06:40:47.821Z,2.20
2022-09-22T06:41:47.803Z,2.30
2022-09-22T06:42:47.774Z,2.40
2022-09-22T06:43:47.750Z,2.50
2022-09-22T06:44:47.810Z,2.10
2022-09-22T06:45:47.808Z,2.10
2022-09-22T06:46:47.710Z,2.50
2022-09-22T06:47:47.767Z,2.00
2022-09-22T06:48:47.718Z,2.50
2022-09-22T06:49:47.707Z,2.20
2022-09-22T06:50:47.684Z,2.70
2022-09-22T06:51:47.679Z,2.40
2022-09-22T06:52:47.664Z,2.20
2022-09-22T06:53:51.861Z,2.10
2022-09-22T06:54:48.973Z,2.60
2022-09-22T06:55:48.741Z,2.40
2022-09-22T06:56:47.609Z,2.80
2022-09-22T06:57:47.596Z,2.60
2022-09-22T06:59:08.781Z,3.20
2022-09-22T06:59:47.600Z,3.30
2022-09-22T07:00:47.699Z,3.10
2022-09-22T07:01:47.706Z,3.80
2022-09-22T07:02:47.528Z,3.00
2022-09-22T07:03:47.535Z,3.60
2022-09-22T07:04:47.542Z,3.80
2022-09-22T07:05:47.506Z,4.00
2022-09-22T07:06:47.493Z,3.40
2022-09-22T07:07:47.485Z,3.20
2022-09-22T07:08:47.485Z,3.70
2022-09-22T07:09:47.480Z,3.50
2022-09-22T07:10:47.454Z,3.50
2022-09-22T07:11:47.459Z,4.00
2022-09-22T07:12:47.426Z,3.40
2022-09-22T07:13:47.425Z,3.10
2022-09-22T07:14:47.419Z,3.60
2022-09-22T07:15:47.396Z,3.60
2022-09-22T07:16:47.430Z,4.00
2022-09-22T07:17:47.433Z,4.10
2022-09-22T07:18:47.364Z,3.40
2022-09-22T07:19:47.372Z,3.20
2022-09-22T07:20:47.350Z,3.40
2022-09-22T07:21:47.331Z,3.50
2022-09-22T07:22:47.306Z,3.20
2022-09-22T07:23:47.301Z,3.30
2022-09-22T07:24:47.305Z,3.20
2022-09-22T07:25:47.291Z,3.30
2022-09-22T07:26:47.276Z,3.30
2022-09-22T07:27:47.266Z,3.90
2022-09-22T07:28:47.259Z,2.90
2022-09-22T07:29:47.260Z,3.30
2022-09-22T07:30:47.236Z,3.20
2022-09-22T07:31:47.316Z,3.20
2022-09-22T07:32:47.198Z,3.20
2022-09-22T07:33:47.191Z,3.50
2022-09-22T07:34:47.207Z,3.20
2022-09-22T07:35:47.164Z,2.80
2022-09-22T07:36:47.154Z,2.90
2022-09-22T07:37:47.148Z,2.80
2022-09-22T07:38:47.144Z,2.70
2022-09-22T07:39:47.143Z,2.70
2022-09-22T07:40:47.124Z,2.50
2022-09-22T07:41:47.100Z,2.30
2022-09-22T07:42:47.115Z,3.00
2022-09-22T07:43:47.082Z,2.30
2022-09-22T07:44:47.094Z,2.30
2022-09-22T07:45:47.067Z,3.30
2022-09-22T07:46:47.174Z,2.60
2022-09-22T07:47:47.068Z,2.40
2022-09-22T07:48:47.030Z,2.50
2022-09-22T07:49:47.034Z,2.60
2022-09-22T07:50:47.013Z,2.20
2022-09-22T07:51:46.998Z,2.40
2022-09-22T07:52:46.988Z,2.00
2022-09-22T07:53:46.963Z,2.60
2022-09-22T07:54:46.975Z,2.00
2022-09-22T07:55:47.044Z,1.90
2022-09-22T07:56:46.955Z,2.00
2022-09-22T07:57:46.965Z,2.20
2022-09-22T07:58:46.918Z,1.80
2022-09-22T07:59:46.931Z,2.70
2022-09-22T08:00:46.929Z,2.00
2022-09-22T08:01:46.905Z,2.40
2022-09-22T08:02:46.865Z,2.50
2022-09-22T08:03:46.887Z,1.80
2022-09-22T08:04:46.884Z,1.70
2022-09-22T08:05:46.844Z,2.10
2022-09-22T08:06:46.849Z,1.90
2022-09-22T08:07:46.825Z,2.20
2022-09-22T08:08:46.811Z,2.50
2022-09-22T08:09:46.829Z,2.10
2022-09-22T08:10:46.817Z,1.90
2022-09-22T08:11:45.776Z,2.20
2022-09-22T08:12:46.783Z,1.90
2022-09-22T08:13:46.767Z,1.70
2022-09-22T08:14:46.757Z,1.90
2022-09-22T08:15:46.782Z,1.70
2022-09-22T08:16:46.721Z,1.50
2022-09-22T08:17:46.735Z,1.80
2022-09-22T08:18:46.689Z,1.80
2022-09-22T08:19:46.680Z,2.30
2022-09-22T08:20:46.691Z,1.80
2022-09-22T08:21:49.221Z,1.90
2022-09-22T08:22:46.655Z,2.10
2022-09-22T08:23:46.649Z,1.20
2022-09-22T08:24:46.645Z,1.50
2022-09-22T08:25:46.660Z,1.70
2022-09-22T08:26:48.416Z,1.70
2022-09-22T08:27:46.617Z,1.80
2022-09-22T08:28:46.645Z,1.60
2022-09-22T08:29:46.568Z,1.50
2022-09-22T08:30:46.606Z,1.80
2022-09-22T08:31:46.573Z,2.30
2022-09-22T08:32:46.539Z,1.80
2022-09-22T08:33:46.559Z,1.80
2022-09-22T08:34:46.513Z,1.60
2022-09-22T08:35:46.527Z,1.40
2022-09-22T08:36:46.623Z,1.60
2022-09-22T08:37:46.496Z,1.30
2022-09-22T08:38:46.518Z,1.40
2022-09-22T08:39:46.474Z,1.20
2022-09-22T08:40:46.532Z,1.80
2022-09-22T08:41:46.437Z,2.00
2022-09-22T08:42:46.435Z,1.50
2022-09-22T08:43:46.416Z,1.70
2022-09-22T08:44:46.430Z,1.30
2022-09-22T08:45:46.581Z,2.20
2022-09-22T08:46:46.413Z,1.60
2022-09-22T08:47:46.385Z,2.10
2022-09-22T08:48:46.418Z,2.10
2022-09-22T08:49:46.407Z,1.30
2022-09-22T08:50:46.381Z,1.60
2022-09-22T08:51:46.395Z,1.50
2022-09-22T08:52:46.347Z,1.80
2022-09-22T08:53:46.318Z,2.40
2022-09-22T08:54:46.313Z,1.50
2022-09-22T08:55:46.325Z,1.90
2022-09-22T08:56:46.269Z,1.60
2022-09-22T08:57:46.285Z,1.30
2022-09-22T08:58:46.306Z,1.80
2022-09-22T08:59:46.250Z,1.30
2022-09-22T09:00:46.248Z,1.40
2022-09-22T09:01:46.273Z,1.30
2022-09-22T09:02:46.294Z,1.40
2022-09-22T09:03:46.196Z,1.30
2022-09-22T09:04:46.180Z,1.50
2022-09-22T09:05:46.207Z,1.40
2022-09-22T09:06:46.172Z,1.80
2022-09-22T09:07:46.173Z,1.30
2022-09-22T09:08:46.139Z,1.30
2022-09-22T09:09:46.120Z,1.60
2022-09-22T09:10:46.152Z,1.50
2022-09-22T09:11:46.176Z,1.30
2022-09-22T09:12:46.136Z,1.10
2022-09-22T09:13:46.102Z,1.10
2022-09-22T09:14:46.075Z,1.40
2022-09-22T09:15:46.129Z,1.50
2022-09-22T09:16:46.052Z,1.10
2022-09-22T09:17:46.055Z,1.20
2022-09-22T09:18:46.063Z,1.20
2022-09-22T09:19:46.061Z,1.40
2022-09-22T09:20:46.059Z,1.20
2022-09-22T09:21:46.011Z,1.40
2022-09-22T09:22:48.487Z,1.60
2022-09-22T09:25:45.973Z,1.40
2022-09-22T09:26:45.933Z,1.10
2022-09-22T09:27:45.976Z,1.10
2022-09-22T09:28:45.932Z,1.20
2022-09-22T09:29:45.917Z,1.50
2022-09-22T09:30:45.905Z,1.40
2022-09-22T09:31:45.875Z,1.40
2022-09-22T09:32:45.872Z,1.10
2022-09-22T09:33:45.857Z,1.00
2022-09-22T09:34:45.858Z,1.20
2022-09-22T09:35:45.851Z,1.00
2022-09-22T09:36:45.868Z,1.10
2022-09-22T09:37:45.824Z,1.10
2022-09-22T09:38:45.796Z,0.90
2022-09-22T09:39:45.788Z,1.30
2022-09-22T09:40:45.813Z,1.00
2022-09-22T09:41:45.789Z,1.20
2022-09-22T09:42:45.775Z,1.30
2022-09-22T09:43:45.785Z,1.10
2022-09-22T09:44:45.735Z,1.40
2022-09-22T09:45:45.761Z,1.60
2022-09-22T09:46:45.746Z,1.60
2022-09-22T09:47:45.750Z,1.40
2022-09-22T09:48:45.699Z,0.90
2022-09-22T09:49:45.684Z,1.00
2022-09-22T09:50:45.711Z,1.00
2022-09-22T09:51:45.674Z,1.10
2022-09-22T09:52:45.658Z,0.70
2022-09-22T09:53:45.657Z,0.90
2022-09-22T09:54:45.620Z,0.90
2022-09-22T09:55:45.653Z,0.90
2022-09-22T09:56:45.614Z,0.90
2022-09-22T09:57:45.599Z,1.10
2022-09-22T09:58:45.575Z,1.00
2022-09-22T09:59:45.571Z,1.00
2022-09-22T10:00:45.578Z,1.10
2022-09-22T10:01:45.698Z,0.90
2022-09-22T10:02:45.530Z,1.20
2022-09-22T10:03:45.577Z,1.20
2022-09-22T10:04:45.539Z,1.00
2022-09-22T10:05:45.531Z,1.20
2022-09-22T10:06:45.488Z,1.20
2022-09-22T10:07:45.504Z,0.90
2022-09-22T10:08:45.484Z,1.20
2022-09-22T10:09:45.463Z,1.00
2022-09-22T10:10:45.475Z,1.10
2022-09-22T10:11:45.450Z,0.80
2022-09-22T10:12:45.422Z,1.00
2022-09-22T10:13:45.411Z,0.80
2022-09-22T10:14:45.419Z,0.90
2022-09-22T10:15:45.429Z,0.90
2022-09-22T10:16:45.380Z,0.70
2022-09-22T10:17:45.358Z,1.10
2022-09-22T10:18:45.351Z,0.80
2022-09-22T10:19:45.360Z,1.20
2022-09-22T10:20:45.343Z,1.20
2022-09-22T10:21:45.362Z,0.70
2022-09-22T10:22:45.327Z,0.80
2022-09-22T10:23:45.298Z,0.90
2022-09-22T10:24:45.297Z,0.80
2022-09-22T10:25:45.295Z,1.00
2022-09-22T10:26:45.280Z,1.00
2022-09-22T10:27:45.266Z,1.10
2022-09-22T10:28:45.255Z,0.80
2022-09-22T10:29:45.232Z,1.10
2022-09-22T10:30:45.319Z,0.90
2022-09-22T10:31:45.236Z,0.70
2022-09-22T10:32:45.209Z,0.80
2022-09-22T10:33:45.209Z,0.80
2022-09-22T10:35:44.181Z,1.00
2022-09-22T10:36:45.153Z,0.60
2022-09-22T10:37:45.165Z,0.80
2022-09-22T10:38:45.146Z,0.80
2022-09-22T10:39:45.123Z,0.90
2022-09-22T10:40:45.183Z,1.00
2022-09-22T10:41:45.099Z,0.60
2022-09-22T10:42:45.098Z,0.80
2022-09-22T10:43:45.091Z,0.90
2022-09-22T10:44:48.357Z,1.30
2022-09-22T10:45:45.078Z,0.80
2022-09-22T10:46:45.148Z,0.70
2022-09-22T10:47:45.038Z,0.90
2022-09-22T10:48:45.021Z,0.90
2022-09-22T10:49:45.014Z,1.20
2022-09-22T10:50:45.022Z,1.00
2022-09-22T10:51:44.992Z,1.20
2022-09-22T10:52:44.978Z,0.70
2022-09-22T10:53:44.972Z,0.80
2022-09-22T10:54:44.961Z,1.00
2022-09-22T10:55:44.966Z,1.00
2022-09-22T10:56:44.938Z,0.90
2022-09-22T10:57:44.944Z,0.80
2022-09-22T10:58:44.929Z,0.60
2022-09-22T10:59:44.943Z,0.90
2022-09-22T11:00:44.928Z,0.70
2022-09-22T11:01:44.938Z,0.90
2022-09-22T11:02:44.858Z,0.80
2022-09-22T11:03:45.335Z,0.90
2022-09-22T11:04:44.921Z,0.90
2022-09-22T11:05:44.932Z,0.70
2022-09-22T11:06:44.846Z,0.80
2022-09-22T11:07:44.819Z,0.70
2022-09-22T11:08:44.816Z,1.10
2022-09-22T11:09:44.902Z,1.20
2022-09-22T11:10:44.798Z,0.70
2022-09-22T11:11:44.812Z,0.70
2022-09-22T11:12:44.757Z,1.10
2022-09-22T11:13:51.295Z,0.70
2022-09-22T11:14:44.733Z,0.80
2022-09-22T11:15:44.750Z,0.80
2022-09-22T11:16:44.710Z,0.80
2022-09-22T11:17:45.469Z,0.90
2022-09-22T11:18:44.684Z,1.00
2022-09-22T11:19:44.684Z,0.70
2022-09-22T11:20:44.681Z,0.90
2022-09-22T11:21:44.659Z,1.00
2022-09-22T11:22:44.645Z,1.20
2022-09-22T11:23:44.638Z,0.80
2022-09-22T11:24:44.639Z,0.80
2022-09-22T11:25:44.627Z,1.00
2022-09-22T11:26:44.605Z,1.10
2022-09-22T11:27:44.594Z,0.80
2022-09-22T11:28:44.585Z,0.70
2022-09-22T11:29:44.573Z,0.70
2022-09-22T11:30:44.603Z,0.80
2022-09-22T11:31:44.553Z,0.70
2022-09-22T11:32:44.549Z,0.90
2022-09-22T11:33:44.522Z,1.10
2022-09-22T11:34:44.519Z,0.70
2022-09-22T11:35:44.526Z,0.70
2022-09-22T11:36:48.061Z,0.80
2022-09-22T11:37:44.560Z,0.80
2022-09-22T11:38:44.476Z,1.10
2022-09-22T11:39:44.464Z,0.90
2022-09-22T11:40:44.561Z,0.80
2022-09-22T11:41:44.436Z,0.80
2022-09-22T11:42:44.421Z,0.70
2022-09-22T11:43:44.419Z,1.00
2022-09-22T11:44:44.403Z,0.80
2022-09-22T11:45:44.528Z,1.00
2022-09-22T11:46:44.383Z,0.70
2022-09-22T11:47:44.377Z,0.80
2022-09-22T11:48:44.363Z,1.00
2022-09-22T11:49:44.352Z,0.70
2022-09-22T11:50:44.346Z,0.80
2022-09-22T11:51:44.335Z,0.80
2022-09-22T11:52:44.318Z,0.90
2022-09-22T11:53:44.310Z,0.80
2022-09-22T11:54:44.311Z,0.90
2022-09-22T11:55:44.297Z,0.80
2022-09-22T11:56:44.275Z,1.00
2022-09-22T11:57:44.266Z,1.10
2022-09-22T11:58:44.270Z,0.70
2022-09-22T11:59:44.242Z,0.70
2022-09-22T12:00:44.244Z,0.70
2022-09-22T12:01:44.231Z,0.70
2022-09-22T12:02:44.297Z,0.80
2022-09-22T12:03:44.327Z,0.80
2022-09-22T12:04:44.184Z,0.80
2022-09-22T12:05:44.195Z,0.80
2022-09-22T12:06:44.160Z,1.10
2022-09-22T12:07:44.158Z,0.70
2022-09-22T12:08:44.205Z,0.90
2022-09-22T12:09:44.134Z,0.80
2022-09-22T12:10:44.139Z,1.00
2022-09-22T12:11:44.124Z,0.80
2022-09-22T12:12:44.104Z,1.00
2022-09-22T12:13:44.086Z,0.60
2022-09-22T12:14:44.079Z,1.10
2022-09-22T12:15:44.230Z,0.80
2022-09-22T12:16:44.061Z,0.90
2022-09-22T12:17:44.039Z,0.80
2022-09-22T12:18:44.046Z,0.70
2022-09-22T12:19:44.092Z,0.90
2022-09-22T12:20:44.026Z,0.90
2022-09-22T12:21:44.009Z,1.10
2022-09-22T12:22:43.986Z,1.00
2022-09-22T12:23:46.349Z,0.70
2022-09-22T12:24:43.975Z,0.70
2022-09-22T12:25:48.744Z,0.90
2022-09-22T12:26:43.955Z,1.10
2022-09-22T12:27:43.935Z,1.10
2022-09-22T12:28:43.918Z,0.70
2022-09-22T12:29:43.917Z,0.90
2022-09-22T12:30:43.964Z,1.00
2022-09-22T12:31:43.891Z,1.10
2022-09-22T12:32:43.871Z,0.60
2022-09-22T12:33:43.876Z,0.90
2022-09-22T12:34:43.855Z,0.80
2022-09-22T12:35:43.866Z,0.80
2022-09-22T12:36:43.839Z,1.00
2022-09-22T12:37:43.831Z,0.70
2022-09-22T12:38:43.807Z,0.60
2022-09-22T12:39:43.810Z,1.00
2022-09-22T12:40:43.840Z,0.60
2022-09-22T12:41:43.780Z,0.90
2022-09-22T12:42:43.767Z,1.00
2022-09-22T12:43:43.756Z,0.70
2022-09-22T12:44:43.744Z,1.10
2022-09-22T12:45:43.814Z,0.70
2022-09-22T12:46:43.719Z,0.80
2022-09-22T12:47:43.716Z,0.90
2022-09-22T12:48:43.698Z,1.20
2022-09-22T12:49:43.689Z,0.80
2022-09-22T12:50:43.695Z,0.90
2022-09-22T12:51:43.669Z,0.80
2022-09-22T12:52:43.661Z,0.80
2022-09-22T12:53:44.014Z,1.00
2022-09-22T12:54:43.629Z,1.00
2022-09-22T12:55:43.643Z,0.70
2022-09-22T12:56:43.614Z,0.70
2022-09-22T12:57:43.614Z,0.90
2022-09-22T12:58:43.575Z,0.80
2022-09-22T12:59:43.578Z,1.20
2022-09-22T13:00:43.632Z,1.40
2022-09-22T13:01:43.657Z,0.90
2022-09-22T13:02:43.539Z,1.00
2022-09-22T13:03:43.531Z,0.90
2022-09-22T13:04:43.519Z,1.00
2022-09-22T13:05:46.712Z,0.80
2022-09-22T13:06:43.503Z,0.70
2022-09-22T13:07:43.482Z,0.80
2022-09-22T13:08:43.468Z,0.80
2022-09-22T13:09:43.466Z,1.00
2022-09-22T13:10:43.466Z,0.70
2022-09-22T13:11:43.441Z,0.70
2022-09-22T13:12:43.431Z,1.00
2022-09-22T13:13:43.426Z,0.90
2022-09-22T13:14:43.412Z,0.80
2022-09-22T13:15:43.399Z,0.60
2022-09-22T13:16:43.461Z,0.90
2022-09-22T13:17:43.384Z,1.00
2022-09-22T13:18:43.361Z,1.00
2022-09-22T13:19:43.360Z,1.10
2022-09-22T13:20:43.341Z,0.80
2022-09-22T13:21:43.343Z,0.70